createdAt,value
2019-05-05T00:01:01.380Z,1.90
2019-05-05T00:03:34.534Z,1.80
2019-05-05T00:06:05.267Z,1.70
2019-05-05T00:08:35.139Z,1.70
2019-05-05T00:11:11.179Z,1.70
2019-05-05T00:13:41.312Z,1.70
2019-05-05T00:16:27.382Z,1.60
2019-05-05T00:18:56.778Z,1.60
2019-05-05T00:21:25.754Z,1.50
2019-05-05T00:23:55.326Z,1.50
2019-05-05T00:26:24.438Z,1.50
2019-05-05T00:28:55.234Z,1.40
2019-05-05T00:31:24.231Z,1.40
2019-05-05T00:33:54.416Z,1.40
2019-05-05T00:36:24.650Z,1.30
2019-05-05T00:38:55.004Z,1.30
2019-05-05T00:41:25.334Z,1.30
2019-05-05T00:43:55.354Z,1.20
2019-05-05T00:46:25.494Z,1.20
2019-05-05T00:48:55.064Z,1.20
2019-05-05T00:51:24.416Z,1.20
2019-05-05T00:53:55.313Z,1.10
2019-05-05T00:56:25.023Z,1.10
2019-05-05T00:58:55.363Z,1.10
2019-05-05T01:01:25.545Z,1.10
2019-05-05T01:03:54.662Z,1.00
2019-05-05T01:06:25.559Z,1.00
2019-05-05T01:08:55.063Z,0.90
2019-05-05T01:11:25.080Z,0.90
2019-05-05T01:13:54.706Z,1.00
2019-05-05T01:16:24.748Z,0.90
2019-05-05T01:18:55.209Z,0.90
2019-05-05T01:21:24.421Z,0.80
2019-05-05T01:23:54.851Z,0.80
2019-05-05T01:26:24.819Z,0.80
2019-05-05T01:28:53.619Z,0.80
2019-05-05T01:31:25.128Z,0.70
2019-05-05T01:33:57.674Z,0.70
2019-05-05T01:36:26.310Z,0.70
2019-05-05T01:39:14.624Z,0.70
2019-05-05T01:41:59.415Z,0.70
2019-05-05T01:44:27.859Z,0.60
2019-05-05T01:46:56.300Z,0.70
2019-05-05T01:49:25.260Z,0.60
2019-05-05T01:51:55.276Z,0.60
2019-05-05T01:54:25.021Z,0.60
2019-05-05T01:56:55.343Z,0.50
2019-05-05T01:59:24.939Z,0.50
2019-05-05T02:01:55.029Z,0.50
2019-05-05T02:04:25.051Z,0.50
2019-05-05T02:06:55.006Z,0.50
2019-05-05T02:09:24.887Z,0.50
2019-05-05T02:11:54.732Z,0.50
2019-05-05T02:14:24.687Z,0.50
2019-05-05T02:16:54.571Z,0.40
2019-05-05T02:19:25.074Z,0.50
2019-05-05T02:21:54.871Z,0.50
2019-05-05T02:24:25.090Z,0.60
2019-05-05T02:26:54.583Z,0.60
2019-05-05T02:29:35.342Z,0.60
2019-05-05T02:32:11.187Z,0.70
2019-05-05T02:34:41.345Z,0.90
2019-05-05T02:37:10.334Z,0.80
2019-05-05T02:39:45.091Z,0.90
2019-05-05T02:42:09.261Z,0.90
2019-05-05T02:44:37.996Z,1.00
2019-05-05T02:47:09.216Z,1.00
2019-05-05T02:49:37.918Z,1.00
2019-05-05T02:52:06.784Z,1.10
2019-05-05T02:54:36.266Z,1.10
2019-05-05T02:57:04.993Z,1.10
2019-05-05T02:59:35.369Z,1.20
2019-05-05T03:02:11.493Z,1.30
2019-05-05T03:04:40.984Z,1.30
2019-05-05T03:07:13.793Z,1.30
2019-05-05T03:09:43.982Z,1.40
2019-05-05T03:12:14.883Z,1.40
2019-05-05T03:14:45.224Z,1.50
2019-05-05T03:17:14.584Z,1.40
2019-05-05T03:19:44.467Z,1.40
2019-05-05T03:22:14.267Z,1.30
2019-05-05T03:24:44.702Z,1.30
2019-05-05T03:27:14.359Z,1.20
2019-05-05T03:29:44.234Z,1.10
2019-05-05T03:32:16.140Z,1.10
2019-05-05T03:34:44.545Z,1.10
2019-05-05T03:37:14.643Z,1.10
2019-05-05T03:39:44.927Z,1.20
2019-05-05T03:42:30.169Z,1.20
2019-05-05T03:45:06.177Z,1.30
2019-05-05T03:47:35.173Z,1.30
2019-05-05T03:50:06.215Z,1.30
2019-05-05T03:52:34.727Z,1.30
2019-05-05T03:55:05.725Z,1.40
2019-05-05T03:57:34.814Z,1.40
2019-05-05T04:00:04.446Z,1.40
2019-05-05T04:02:53.856Z,1.40
2019-05-05T04:05:24.118Z,1.40
2019-05-05T04:07:54.431Z,1.40
2019-05-05T04:10:24.473Z,1.40
2019-05-05T04:12:53.991Z,1.30
2019-05-05T04:15:24.323Z,1.30
2019-05-05T04:18:04.014Z,1.20
2019-05-05T04:20:34.582Z,1.20
2019-05-05T04:23:03.724Z,1.20
2019-05-05T04:25:32.470Z,1.20
2019-05-05T04:28:00.906Z,1.10
2019-05-05T04:30:29.330Z,1.10
2019-05-05T04:32:57.878Z,1.10
2019-05-05T04:35:26.340Z,1.10
2019-05-05T04:37:54.822Z,1.10
2019-05-05T04:40:24.025Z,1.10
2019-05-05T04:42:54.746Z,1.20
2019-05-05T04:45:24.085Z,1.30
2019-05-05T04:47:57.061Z,1.30
2019-05-05T04:50:31.692Z,1.30
2019-05-05T04:53:01.812Z,1.30
2019-05-05T04:55:30.343Z,1.30
2019-05-05T04:57:58.796Z,1.30
2019-05-05T05:00:27.280Z,1.30
2019-05-05T05:03:09.301Z,1.30
2019-05-05T05:05:55.425Z,1.30
2019-05-05T05:08:24.713Z,1.30
2019-05-05T05:10:54.292Z,1.40
2019-05-05T05:13:24.485Z,1.50
2019-05-05T05:15:53.963Z,1.50
2019-05-05T05:18:24.048Z,1.50
2019-05-05T05:20:54.757Z,1.60
2019-05-05T05:23:24.659Z,1.60
2019-05-05T05:25:54.381Z,1.70
2019-05-05T05:28:23.734Z,1.90
2019-05-05T05:30:54.384Z,2.00
2019-05-05T05:33:23.910Z,2.10
2019-05-05T05:35:54.475Z,2.20
2019-05-05T05:38:24.237Z,2.20
2019-05-05T05:40:54.722Z,2.30
2019-05-05T05:43:25.442Z,2.50
2019-05-05T05:45:55.575Z,2.60
2019-05-05T05:48:29.213Z,2.70
2019-05-05T05:51:04.075Z,2.80
2019-05-05T05:53:32.022Z,3.00
2019-05-05T05:56:00.638Z,3.20
2019-05-05T05:58:29.186Z,3.20
2019-05-05T06:00:58.277Z,3.30
2019-05-05T06:03:27.141Z,3.50
2019-05-05T06:05:55.732Z,3.50
2019-05-05T06:08:24.449Z,3.40
2019-05-05T06:10:54.661Z,3.50
2019-05-05T06:13:24.157Z,3.60
2019-05-05T06:15:53.580Z,3.70
2019-05-05T06:18:24.296Z,3.70
2019-05-05T06:20:53.781Z,3.80
2019-05-05T06:23:24.062Z,4.00
2019-05-05T06:25:54.839Z,4.00
2019-05-05T06:28:23.674Z,4.10
2019-05-05T06:30:54.463Z,4.20
2019-05-05T06:33:24.153Z,4.30
2019-05-05T06:35:53.627Z,4.40
2019-05-05T06:38:24.217Z,4.70
2019-05-05T06:41:14.674Z,5.00
2019-05-05T06:43:44.906Z,4.90
2019-05-05T06:46:34.230Z,5.00
2019-05-05T06:49:04.380Z,5.00
2019-05-05T06:51:33.566Z,5.00
2019-05-05T06:54:02.006Z,5.30
2019-05-05T06:56:30.623Z,5.50
2019-05-05T06:58:59.072Z,5.60
2019-05-05T07:01:27.574Z,5.60
2019-05-05T07:03:55.986Z,5.70
2019-05-05T07:06:24.523Z,6.20
2019-05-05T07:08:54.561Z,6.60
2019-05-05T07:11:23.817Z,6.80
2019-05-05T07:13:55.349Z,6.60
2019-05-05T07:16:24.435Z,6.80
2019-05-05T07:18:53.902Z,7.00
2019-05-05T07:21:23.731Z,7.50
2019-05-05T07:23:53.860Z,7.50
2019-05-05T07:26:23.797Z,7.40
2019-05-05T07:28:54.141Z,7.50
2019-05-05T07:31:23.846Z,7.90
2019-05-05T07:33:54.517Z,8.20
2019-05-05T07:36:36.804Z,8.30
2019-05-05T07:39:07.061Z,8.20
2019-05-05T07:41:40.493Z,8.60
2019-05-05T07:44:22.161Z,8.60
2019-05-05T07:46:38.705Z,8.50
2019-05-05T07:49:08.346Z,7.90
2019-05-05T07:51:38.356Z,7.80
2019-05-05T07:54:06.827Z,7.90
2019-05-05T07:56:35.428Z,8.00
2019-05-05T07:59:04.105Z,8.00
2019-05-05T08:01:33.710Z,8.50
2019-05-05T08:04:04.306Z,8.30
2019-05-05T08:06:33.937Z,8.50
2019-05-05T08:09:04.097Z,8.00
2019-05-05T08:11:34.297Z,8.30
2019-05-05T08:14:04.006Z,8.70
2019-05-05T08:16:44.217Z,8.60
2019-05-05T08:19:17.446Z,8.70
2019-05-05T08:21:45.842Z,8.90
2019-05-05T08:24:16.004Z,9.40
2019-05-05T08:26:46.184Z,9.20
2019-05-05T08:29:34.684Z,9.40
2019-05-05T08:32:23.771Z,8.90
2019-05-05T08:34:58.161Z,8.80
2019-05-05T08:37:25.671Z,9.20
2019-05-05T08:39:54.218Z,9.30
2019-05-05T08:42:24.708Z,9.50
2019-05-05T08:44:53.834Z,9.70
2019-05-05T08:47:24.450Z,9.40
2019-05-05T08:49:53.745Z,9.40
2019-05-05T08:52:23.861Z,9.50
2019-05-05T08:54:54.113Z,9.80
2019-05-05T08:57:23.612Z,9.70
2019-05-05T08:59:54.510Z,9.60
2019-05-05T09:02:23.906Z,9.90
2019-05-05T09:04:53.764Z,9.90
2019-05-05T09:07:24.303Z,9.70
2019-05-05T09:09:54.664Z,9.20
2019-05-05T09:12:23.637Z,8.70
2019-05-05T09:14:53.893Z,8.50
2019-05-05T09:17:24.376Z,8.50
2019-05-05T09:19:53.706Z,8.20
2019-05-05T09:22:24.452Z,8.90
2019-05-05T09:24:54.212Z,9.20
2019-05-05T09:27:28.362Z,9.60
2019-05-05T09:29:57.147Z,9.80
2019-05-05T09:32:25.600Z,9.70
2019-05-05T09:34:54.148Z,9.90
2019-05-05T09:37:24.575Z,9.60
2019-05-05T09:39:54.107Z,9.60
2019-05-05T09:42:23.603Z,9.40
2019-05-05T09:44:54.031Z,9.10
2019-05-05T09:47:24.036Z,9.20
2019-05-05T09:49:54.788Z,9.00
2019-05-05T09:52:24.401Z,8.70
2019-05-05T09:54:54.458Z,8.80
2019-05-05T09:57:23.893Z,8.90
2019-05-05T09:59:54.293Z,9.40
2019-05-05T10:02:24.027Z,9.50
2019-05-05T10:04:54.490Z,9.50
2019-05-05T10:07:24.213Z,9.20
2019-05-05T10:09:54.223Z,9.20
2019-05-05T10:12:22.782Z,9.20
2019-05-05T10:14:51.329Z,9.30
2019-05-05T10:17:19.756Z,9.20
2019-05-05T10:19:48.304Z,9.20
2019-05-05T10:22:16.965Z,9.40
2019-05-05T10:24:55.301Z,9.50
2019-05-05T10:27:23.298Z,9.50
2019-05-05T10:29:51.987Z,9.40
2019-05-05T10:32:20.428Z,9.40
2019-05-05T10:34:50.607Z,9.40
2019-05-05T10:37:19.063Z,9.60
2019-05-05T10:39:49.436Z,9.60
2019-05-05T10:42:19.564Z,9.50
2019-05-05T10:44:48.155Z,9.40
2019-05-05T10:47:16.730Z,9.60
2019-05-05T10:49:45.257Z,9.50
2019-05-05T10:52:14.339Z,9.60
2019-05-05T10:54:44.759Z,9.50
2019-05-05T10:57:14.511Z,9.40
2019-05-05T10:59:43.583Z,9.30
2019-05-05T11:02:14.039Z,9.20
2019-05-05T11:04:44.156Z,9.30
2019-05-05T11:07:14.547Z,9.30
2019-05-05T11:09:44.405Z,9.30
2019-05-05T11:12:14.279Z,9.30
2019-05-05T11:14:44.259Z,9.10
2019-05-05T11:17:14.407Z,9.00
2019-05-05T11:19:44.100Z,9.10
2019-05-05T11:22:14.694Z,9.30
2019-05-05T11:24:55.204Z,9.60
2019-05-05T11:27:13.275Z,9.60
2019-05-05T11:29:59.758Z,9.60
2019-05-05T11:32:46.470Z,9.90
2019-05-05T11:35:15.867Z,9.90
2019-05-05T11:37:45.246Z,10.60
2019-05-05T11:40:13.851Z,10.60
2019-05-05T11:42:42.308Z,10.70
2019-05-05T11:45:11.778Z,10.60
2019-05-05T11:47:40.636Z,10.40
2019-05-05T11:50:14.853Z,10.50
2019-05-05T11:52:44.403Z,10.40
2019-05-05T11:55:14.992Z,10.50
2019-05-05T11:57:43.760Z,10.40
2019-05-05T12:00:14.125Z,10.40
2019-05-05T12:02:43.959Z,10.00
2019-05-05T12:05:14.096Z,9.90
2019-05-05T12:07:43.635Z,9.60
2019-05-05T12:10:29.410Z,9.90
2019-05-05T12:13:05.616Z,10.40
2019-05-05T12:15:34.198Z,10.70
2019-05-05T12:18:03.831Z,11.20
2019-05-05T12:20:37.391Z,11.60
2019-05-05T12:23:06.406Z,11.80
2019-05-05T12:25:56.660Z,11.50
2019-05-05T12:28:26.983Z,11.60
2019-05-05T12:31:00.401Z,11.60
2019-05-05T12:33:28.851Z,11.40
2019-05-05T12:35:57.380Z,11.30
2019-05-05T12:38:25.811Z,10.90
2019-05-05T12:40:54.277Z,10.60
2019-05-05T12:43:24.645Z,10.40
2019-05-05T12:46:13.805Z,10.30
2019-05-05T12:48:44.041Z,10.30
2019-05-05T12:51:14.731Z,10.30
2019-05-05T12:53:42.923Z,10.20
2019-05-05T12:56:11.470Z,10.20
2019-05-05T12:58:40.028Z,10.20
2019-05-05T13:01:24.896Z,10.20
2019-05-05T13:03:54.246Z,10.30
2019-05-05T13:06:23.984Z,10.10
2019-05-05T13:08:53.438Z,10.10
2019-05-05T13:11:23.823Z,10.10
2019-05-05T13:13:54.571Z,10.00
2019-05-05T13:16:25.071Z,10.10
2019-05-05T13:18:56.376Z,10.10
2019-05-05T13:21:34.701Z,10.20
2019-05-05T13:24:19.913Z,10.40
2019-05-05T13:26:54.082Z,10.40
2019-05-05T13:29:24.634Z,10.30
2019-05-05T13:31:54.437Z,10.40
2019-05-05T13:34:23.140Z,10.40
2019-05-05T13:36:51.636Z,10.40
2019-05-05T13:39:20.214Z,10.40
2019-05-05T13:41:48.800Z,10.50
2019-05-05T13:44:24.119Z,10.30
2019-05-05T13:46:53.601Z,10.20
2019-05-05T13:49:32.371Z,10.10
2019-05-05T13:52:04.776Z,10.00
2019-05-05T13:54:34.781Z,9.80
2019-05-05T13:57:03.953Z,9.80
2019-05-05T13:59:33.907Z,9.80
2019-05-05T14:02:02.729Z,9.80
2019-05-05T14:04:31.718Z,9.80
2019-05-05T14:07:00.195Z,9.80
2019-05-05T14:09:28.674Z,9.90
2019-05-05T14:11:57.338Z,10.10
2019-05-05T14:14:25.893Z,9.90
2019-05-05T14:16:54.462Z,10.00
2019-05-05T14:19:24.857Z,10.10
2019-05-05T14:21:53.853Z,10.30
2019-05-05T14:24:24.075Z,10.80
2019-05-05T14:26:54.227Z,11.10
2019-05-05T14:29:42.039Z,10.70
2019-05-05T14:32:13.544Z,11.00
2019-05-05T14:35:01.406Z,11.10
2019-05-05T14:37:34.040Z,10.90
2019-05-05T14:40:04.727Z,11.10
2019-05-05T14:42:34.188Z,11.50
2019-05-05T14:45:04.736Z,11.50
2019-05-05T14:47:33.670Z,11.60
2019-05-05T14:50:04.566Z,11.30
2019-05-05T14:52:32.409Z,11.60
2019-05-05T14:55:00.968Z,11.30
2019-05-05T14:57:29.449Z,10.90
2019-05-05T14:59:58.051Z,10.90
2019-05-05T15:02:26.616Z,10.70
2019-05-05T15:04:56.709Z,10.70
2019-05-05T15:07:29.591Z,10.60
2019-05-05T15:10:11.184Z,10.60
2019-05-05T15:12:41.398Z,10.50
2019-05-05T15:15:10.678Z,10.50
2019-05-05T15:17:41.692Z,10.50
2019-05-05T15:20:10.511Z,10.50
2019-05-05T15:22:39.079Z,10.40
2019-05-05T15:25:07.660Z,10.40
2019-05-05T15:27:36.396Z,10.50
2019-05-05T15:30:06.974Z,10.50
2019-05-05T15:32:35.436Z,10.70
2019-05-05T15:35:05.904Z,10.90
2019-05-05T15:37:34.588Z,10.90
2019-05-05T15:40:04.004Z,10.90
2019-05-05T15:42:34.342Z,10.60
2019-05-05T15:45:04.066Z,10.50
2019-05-05T15:47:34.308Z,10.50
2019-05-05T15:50:05.129Z,10.80
2019-05-05T15:52:35.872Z,10.90
2019-05-05T15:55:05.837Z,10.60
2019-05-05T15:57:34.360Z,10.60
2019-05-05T16:00:04.197Z,10.70
2019-05-05T16:02:35.828Z,10.70
2019-05-05T16:05:04.518Z,10.70
2019-05-05T16:07:33.428Z,10.90
2019-05-05T16:10:03.990Z,11.00
2019-05-05T16:12:36.513Z,11.00
2019-05-05T16:15:07.249Z,11.30
2019-05-05T16:17:40.398Z,11.00
2019-05-05T16:20:15.958Z,10.70
2019-05-05T16:22:46.094Z,10.70
2019-05-05T16:25:16.098Z,10.60
2019-05-05T16:27:44.915Z,10.50
2019-05-05T16:30:15.728Z,10.70
2019-05-05T16:32:44.416Z,10.80
2019-05-05T16:35:14.526Z,10.80
2019-05-05T16:37:46.199Z,10.70
2019-05-05T16:40:18.182Z,10.80
2019-05-05T16:42:46.957Z,10.60
2019-05-05T16:45:16.626Z,10.50
2019-05-05T16:47:45.362Z,10.50
2019-05-05T16:50:14.053Z,10.40
2019-05-05T16:52:59.165Z,10.70
2019-05-05T16:55:32.021Z,10.40
2019-05-05T16:58:00.474Z,10.30
2019-05-05T17:00:29.158Z,10.30
2019-05-05T17:02:57.975Z,10.30
2019-05-05T17:05:26.466Z,10.20
2019-05-05T17:07:55.634Z,10.10
2019-05-05T17:10:25.208Z,10.00
2019-05-05T17:12:54.430Z,10.00
2019-05-05T17:15:27.499Z,9.90
2019-05-05T17:18:04.649Z,9.80
2019-05-05T17:20:50.993Z,9.70
2019-05-05T17:23:21.190Z,9.60
2019-05-05T17:25:49.614Z,9.50
2019-05-05T17:28:18.494Z,9.40
2019-05-05T17:30:47.092Z,9.40
2019-05-05T17:33:15.668Z,9.30
2019-05-05T17:35:44.107Z,9.30
2019-05-05T17:38:14.259Z,9.10
2019-05-05T17:40:44.486Z,9.00
2019-05-05T17:43:34.081Z,8.90
2019-05-05T17:46:07.315Z,8.80
2019-05-05T17:48:44.191Z,8.70
2019-05-05T17:51:31.288Z,8.60
2019-05-05T17:54:04.637Z,8.50
2019-05-05T17:56:33.601Z,8.50
2019-05-05T17:59:03.474Z,8.50
2019-05-05T18:01:33.623Z,8.40
2019-05-05T18:04:04.155Z,8.40
2019-05-05T18:06:44.039Z,8.40
2019-05-05T18:09:19.829Z,8.30
2019-05-05T18:11:58.427Z,8.30
2019-05-05T18:14:34.052Z,8.30
2019-05-05T18:17:04.245Z,8.20
2019-05-05T18:19:33.993Z,8.10
2019-05-05T18:22:02.614Z,8.00
2019-05-05T18:24:31.036Z,7.90
2019-05-05T18:27:00.073Z,8.00
2019-05-05T18:29:28.560Z,8.00
2019-05-05T18:31:57.665Z,8.10
2019-05-05T18:34:26.192Z,8.10
2019-05-05T18:36:54.714Z,8.10
2019-05-05T18:39:24.745Z,8.10
2019-05-05T18:41:55.040Z,8.00
2019-05-05T18:44:25.269Z,8.00
2019-05-05T18:47:12.923Z,8.00
2019-05-05T18:49:40.881Z,8.00
2019-05-05T18:52:09.625Z,7.90
2019-05-05T18:54:38.309Z,7.80
2019-05-05T18:57:08.125Z,7.70
2019-05-05T18:59:36.606Z,7.60
2019-05-05T19:02:19.201Z,7.60
2019-05-05T19:04:49.588Z,7.50
2019-05-05T19:07:28.618Z,7.40
2019-05-05T19:09:57.242Z,7.40
2019-05-05T19:12:25.896Z,7.40
2019-05-05T19:14:54.983Z,7.40
2019-05-05T19:17:23.682Z,7.30
2019-05-05T19:19:54.927Z,7.30
2019-05-05T19:22:23.540Z,7.30
2019-05-05T19:24:52.088Z,7.30
2019-05-05T19:27:20.611Z,7.30
2019-05-05T19:29:49.071Z,7.30
2019-05-05T19:32:17.607Z,7.30
2019-05-05T19:34:46.136Z,7.30
2019-05-05T19:37:14.656Z,7.30
2019-05-05T19:39:43.151Z,7.30
2019-05-05T19:42:11.632Z,7.30
2019-05-05T19:44:40.071Z,7.20
2019-05-05T19:47:19.299Z,7.30
2019-05-05T19:49:49.520Z,7.20
2019-05-05T19:52:18.047Z,7.20
2019-05-05T19:54:47.669Z,7.20
2019-05-05T19:57:16.182Z,7.20
2019-05-05T19:59:44.870Z,7.20
2019-05-05T20:02:13.650Z,7.30
2019-05-05T20:04:44.327Z,7.30
2019-05-05T20:07:13.918Z,7.30
2019-05-05T20:09:43.567Z,7.20
2019-05-05T20:12:14.601Z,7.10
2019-05-05T20:14:43.632Z,7.10
2019-05-05T20:17:14.780Z,7.10
2019-05-05T20:19:44.151Z,7.10
2019-05-05T20:22:14.563Z,7.10
2019-05-05T20:24:44.364Z,7.10
2019-05-05T20:27:13.940Z,7.10
2019-05-05T20:29:42.634Z,7.00
2019-05-05T20:32:11.112Z,7.00
2019-05-05T20:34:41.310Z,7.00
2019-05-05T20:37:11.395Z,7.00
2019-05-05T20:39:40.072Z,7.00
2019-05-05T20:42:08.815Z,6.90
2019-05-05T20:44:37.841Z,6.90
2019-05-05T20:47:09.272Z,6.90
2019-05-05T20:49:37.784Z,6.80
2019-05-05T20:52:06.304Z,6.80
2019-05-05T20:54:34.857Z,6.70
2019-05-05T20:57:04.284Z,6.70
2019-05-05T20:59:34.256Z,6.70
2019-05-05T21:02:04.495Z,6.70
2019-05-05T21:04:34.530Z,6.70
2019-05-05T21:07:04.498Z,6.70
2019-05-05T21:09:34.479Z,6.60
2019-05-05T21:12:04.730Z,6.60
2019-05-05T21:14:37.153Z,6.50
2019-05-05T21:17:04.170Z,6.50
2019-05-05T21:19:34.561Z,6.40
2019-05-05T21:22:07.484Z,6.40
2019-05-05T21:24:35.151Z,6.30
2019-05-05T21:27:04.487Z,6.20
2019-05-05T21:29:41.601Z,6.20
2019-05-05T21:32:04.519Z,6.00
2019-05-05T21:34:34.240Z,5.90
2019-05-05T21:37:04.464Z,5.80
2019-05-05T21:39:34.776Z,5.70
2019-05-05T21:42:04.674Z,5.50
2019-05-05T21:44:34.357Z,5.40
2019-05-05T21:47:02.955Z,5.30
2019-05-05T21:49:33.427Z,5.20
2019-05-05T21:52:08.081Z,5.10
2019-05-05T21:54:37.859Z,5.10
2019-05-05T21:57:25.222Z,5.00
2019-05-05T21:59:58.047Z,4.90
2019-05-05T22:02:23.993Z,4.80
2019-05-05T22:04:54.316Z,4.70
2019-05-05T22:07:24.112Z,4.70
2019-05-05T22:09:54.478Z,4.60
2019-05-05T22:12:24.371Z,4.50
2019-05-05T22:14:54.838Z,4.50
2019-05-05T22:17:23.127Z,4.40
2019-05-05T22:19:54.219Z,4.40
2019-05-05T22:22:24.369Z,4.50
2019-05-05T22:24:54.083Z,4.50
2019-05-05T22:27:23.763Z,4.50
2019-05-05T22:29:55.356Z,4.50
2019-05-05T22:32:24.824Z,4.50
2019-05-05T22:34:52.787Z,4.50
2019-05-05T22:37:21.255Z,4.50
2019-05-05T22:39:49.734Z,4.40
2019-05-05T22:42:18.227Z,4.40
2019-05-05T22:44:46.691Z,4.30
2019-05-05T22:47:15.211Z,4.30
2019-05-05T22:49:44.361Z,4.20
2019-05-05T22:52:14.472Z,4.10
2019-05-05T22:54:44.412Z,4.00
2019-05-05T22:57:14.023Z,4.00
2019-05-05T22:59:42.633Z,4.00
2019-05-05T23:02:11.137Z,4.00
2019-05-05T23:04:44.025Z,3.90
2019-05-05T23:07:16.087Z,3.90
2019-05-05T23:09:44.551Z,3.90
2019-05-05T23:12:13.643Z,3.90
2019-05-05T23:14:43.708Z,3.90
2019-05-05T23:17:34.030Z,4.00
2019-05-05T23:20:06.386Z,4.10
2019-05-05T23:22:45.406Z,4.10
2019-05-05T23:25:15.514Z,4.10
2019-05-05T23:27:50.285Z,4.10
2019-05-05T23:30:23.581Z,4.20
2019-05-05T23:32:50.913Z,4.20
2019-05-05T23:35:19.410Z,4.30
2019-05-05T23:37:47.994Z,4.30
2019-05-05T23:40:25.189Z,4.30
2019-05-05T23:42:54.178Z,4.40
2019-05-05T23:45:24.716Z,4.40
2019-05-05T23:47:54.517Z,4.50
2019-05-05T23:50:23.702Z,4.60
2019-05-05T23:52:54.341Z,4.60
2019-05-05T23:55:24.018Z,4.70
2019-05-05T23:57:54.703Z,4.70
